sensor_id;sensor_type;location;lat;lon;timestamp;P1;durP1;ratioP1;P2;durP2;ratioP2
61025;SDS011;46911;32.650;-16.902;2023-04-25T00:01:43;9.57;;;1.35;;
61025;SDS011;46911;32.650;-16.902;2023-04-25T00:03:49;6.72;;;1.40;;
61025;SDS011;46911;32.650;-16.902;2023-04-25T00:05:50;8.35;;;1.17;;
61025;SDS011;46911;32.650;-16.902;2023-04-25T00:07:52;5.28;;;1.10;;
61025;SDS011;46911;32.650;-16.902;2023-04-25T00:09:55;4.43;;;1.10;;
61025;SDS011;46911;32.650;-16.902;2023-04-25T00:11:56;6.25;;;1.13;;
61025;SDS011;46911;32.650;-16.902;2023-04-25T00:14:04;7.72;;;1.50;;
61025;SDS011;46911;32.650;-16.902;2023-04-25T00:16:10;3.47;;;1.10;;
61025;SDS011;46911;32.650;-16.902;2023-04-25T00:18:16;5.75;;;1.30;;
61025;SDS011;46911;32.650;-16.902;2023-04-25T00:20:18;7.47;;;1.73;;
61025;SDS011;46911;32.650;-16.902;2023-04-25T00:22:21;6.75;;;1.08;;
61025;SDS011;46911;32.650;-16.902;2023-04-25T00:24:22;9.82;;;1.65;;
61025;SDS011;46911;32.650;-16.902;2023-04-25T00:26:26;6.75;;;1.30;;
61025;SDS011;46911;32.650;-16.902;2023-04-25T00:28:27;3.28;;;1.33;;
61025;SDS011;46911;32.650;-16.902;2023-04-25T00:30:28;6.90;;;1.45;;
61025;SDS011;46911;32.650;-16.902;2023-04-25T00:32:32;10.73;;;1.20;;
61025;SDS011;46911;32.650;-16.902;2023-04-25T00:34:32;7.93;;;1.42;;
61025;SDS011;46911;32.650;-16.902;2023-04-25T00:36:36;3.63;;;1.05;;
61025;SDS011;46911;32.650;-16.902;2023-04-25T00:38:41;9.52;;;1.50;;
61025;SDS011;46911;32.650;-16.902;2023-04-25T00:40:42;10.75;;;0.98;;
61025;SDS011;46911;32.650;-16.902;2023-04-25T00:42:43;4.70;;;1.00;;
61025;SDS011;46911;32.650;-16.902;2023-04-25T00:44:49;9.48;;;1.38;;
61025;SDS011;46911;32.650;-16.902;2023-04-25T00:46:50;4.30;;;1.33;;
61025;SDS011;46911;32.650;-16.902;2023-04-25T00:48:52;8.25;;;1.40;;
61025;SDS011;46911;32.650;-16.902;2023-04-25T00:50:53;5.13;;;1.13;;
61025;SDS011;46911;32.650;-16.902;2023-04-25T00:52:58;8.55;;;1.33;;
61025;SDS011;46911;32.650;-16.902;2023-04-25T00:55:00;4.32;;;1.20;;
61025;SDS011;46911;32.650;-16.902;2023-04-25T00:57:01;6.05;;;1.55;;
61025;SDS011;46911;32.650;-16.902;2023-04-25T00:59:06;5.90;;;1.60;;
61025;SDS011;46911;32.650;-16.902;2023-04-25T01:01:13;2.70;;;1.00;;
61025;SDS011;46911;32.650;-16.902;2023-04-25T01:03:16;6.28;;;1.33;;
61025;SDS011;46911;32.650;-16.902;2023-04-25T01:05:20;8.57;;;1.10;;
61025;SDS011;46911;32.650;-16.902;2023-04-25T01:07:26;7.00;;;1.30;;
61025;SDS011;46911;32.650;-16.902;2023-04-25T01:09:30;7.35;;;1.05;;
61025;SDS011;46911;32.650;-16.902;2023-04-25T01:11:34;2.47;;;0.85;;
61025;SDS011;46911;32.650;-16.902;2023-04-25T01:13:35;12.20;;;1.20;;
61025;SDS011;46911;32.650;-16.902;2023-04-25T01:15:39;7.97;;;1.63;;
61025;SDS011;46911;32.650;-16.902;2023-04-25T01:17:45;5.88;;;1.48;;
61025;SDS011;46911;32.650;-16.902;2023-04-25T01:19:46;5.60;;;1.30;;
61025;SDS011;46911;32.650;-16.902;2023-04-25T01:21:51;9.50;;;1.83;;
61025;SDS011;46911;32.650;-16.902;2023-04-25T01:23:55;6.35;;;1.23;;
61025;SDS011;46911;32.650;-16.902;2023-04-25T01:25:56;14.50;;;1.42;;
61025;SDS011;46911;32.650;-16.902;2023-04-25T01:27:57;3.40;;;0.90;;
61025;SDS011;46911;32.650;-16.902;2023-04-25T01:30:02;4.07;;;1.00;;
61025;SDS011;46911;32.650;-16.902;2023-04-25T01:32:09;9.15;;;1.30;;
61025;SDS011;46911;32.650;-16.902;2023-04-25T01:34:10;3.92;;;1.13;;
61025;SDS011;46911;32.650;-16.902;2023-04-25T01:36:17;8.05;;;1.15;;
61025;SDS011;46911;32.650;-16.902;2023-04-25T01:38:21;9.45;;;1.10;;
61025;SDS011;46911;32.650;-16.902;2023-04-25T01:40:22;5.45;;;1.15;;
61025;SDS011;46911;32.650;-16.902;2023-04-25T01:42:25;7.30;;;1.17;;
61025;SDS011;46911;32.650;-16.902;2023-04-25T01:44:26;4.30;;;0.80;;
61025;SDS011;46911;32.650;-16.902;2023-04-25T01:46:27;4.95;;;0.88;;
61025;SDS011;46911;32.650;-16.902;2023-04-25T01:48:31;3.95;;;1.00;;
61025;SDS011;46911;32.650;-16.902;2023-04-25T01:50:35;10.70;;;2.08;;
61025;SDS011;46911;32.650;-16.902;2023-04-25T01:52:39;6.93;;;1.20;;
61025;SDS011;46911;32.650;-16.902;2023-04-25T01:54:44;4.97;;;1.23;;
61025;SDS011;46911;32.650;-16.902;2023-04-25T01:56:50;4.95;;;1.15;;
61025;SDS011;46911;32.650;-16.902;2023-04-25T01:58:56;4.45;;;1.13;;
61025;SDS011;46911;32.650;-16.902;2023-04-25T02:03:24;5.43;;;1.10;;
61025;SDS011;46911;32.650;-16.902;2023-04-25T02:05:33;3.28;;;1.08;;
61025;SDS011;46911;32.650;-16.902;2023-04-25T02:07:39;5.93;;;1.00;;
61025;SDS011;46911;32.650;-16.902;2023-04-25T02:09:42;6.35;;;1.10;;
61025;SDS011;46911;32.650;-16.902;2023-04-25T02:11:45;4.50;;;1.10;;
61025;SDS011;46911;32.650;-16.902;2023-04-25T02:14:08;6.30;;;1.38;;
61025;SDS011;46911;32.650;-16.902;2023-04-25T02:16:24;10.07;;;1.40;;
61025;SDS011;46911;32.650;-16.902;2023-04-25T02:18:25;6.50;;;1.15;;
61025;SDS011;46911;32.650;-16.902;2023-04-25T02:20:29;4.55;;;1.15;;
61025;SDS011;46911;32.650;-16.902;2023-04-25T02:22:31;8.02;;;1.15;;
61025;SDS011;46911;32.650;-16.902;2023-04-25T02:24:34;7.80;;;1.30;;
61025;SDS011;46911;32.650;-16.902;2023-04-25T02:26:40;8.52;;;2.83;;
61025;SDS011;46911;32.650;-16.902;2023-04-25T02:28:44;3.03;;;0.90;;
61025;SDS011;46911;32.650;-16.902;2023-04-25T02:30:50;2.75;;;1.00;;
61025;SDS011;46911;32.650;-16.902;2023-04-25T02:32:53;4.25;;;0.98;;
61025;SDS011;46911;32.650;-16.902;2023-04-25T02:34:56;7.60;;;1.30;;
61025;SDS011;46911;32.650;-16.902;2023-04-25T02:37:00;6.18;;;1.45;;
61025;SDS011;46911;32.650;-16.902;2023-04-25T02:39:04;6.07;;;1.63;;
61025;SDS011;46911;32.650;-16.902;2023-04-25T02:41:05;6.20;;;1.30;;
61025;SDS011;46911;32.650;-16.902;2023-04-25T02:43:06;10.57;;;1.58;;
61025;SDS011;46911;32.650;-16.902;2023-04-25T02:45:07;6.13;;;1.38;;
61025;SDS011;46911;32.650;-16.902;2023-04-25T02:47:09;5.03;;;1.13;;
61025;SDS011;46911;32.650;-16.902;2023-04-25T02:49:10;4.35;;;1.40;;
61025;SDS011;46911;32.650;-16.902;2023-04-25T02:51:13;4.50;;;1.05;;
61025;SDS011;46911;32.650;-16.902;2023-04-25T02:53:19;9.93;;;1.40;;
61025;SDS011;46911;32.650;-16.902;2023-04-25T02:55:23;4.60;;;1.30;;
61025;SDS011;46911;32.650;-16.902;2023-04-25T02:57:27;6.00;;;1.55;;
61025;SDS011;46911;32.650;-16.902;2023-04-25T02:59:31;1.75;;;1.08;;
61025;SDS011;46911;32.650;-16.902;2023-04-25T03:01:32;4.20;;;1.38;;
61025;SDS011;46911;32.650;-16.902;2023-04-25T03:03:35;4.95;;;1.70;;
61025;SDS011;46911;32.650;-16.902;2023-04-25T03:05:39;4.07;;;1.30;;
61025;SDS011;46911;32.650;-16.902;2023-04-25T03:07:43;17.75;;;1.75;;
61025;SDS011;46911;32.650;-16.902;2023-04-25T03:09:50;3.67;;;1.13;;
61025;SDS011;46911;32.650;-16.902;2023-04-25T03:11:53;3.90;;;0.80;;
61025;SDS011;46911;32.650;-16.902;2023-04-25T03:13:59;6.80;;;1.33;;
61025;SDS011;46911;32.650;-16.902;2023-04-25T03:16:00;4.68;;;1.20;;
61025;SDS011;46911;32.650;-16.902;2023-04-25T03:18:03;4.95;;;0.95;;
61025;SDS011;46911;32.650;-16.902;2023-04-25T03:20:05;6.40;;;1.30;;
61025;SDS011;46911;32.650;-16.902;2023-04-25T03:22:08;4.97;;;0.80;;
61025;SDS011;46911;32.650;-16.902;2023-04-25T03:24:14;4.93;;;1.08;;
61025;SDS011;46911;32.650;-16.902;2023-04-25T03:26:15;3.97;;;1.20;;
61025;SDS011;46911;32.650;-16.902;2023-04-25T03:28:19;5.28;;;0.90;;
61025;SDS011;46911;32.650;-16.902;2023-04-25T03:30:20;6.68;;;1.02;;
61025;SDS011;46911;32.650;-16.902;2023-04-25T03:32:22;4.50;;;1.00;;
61025;SDS011;46911;32.650;-16.902;2023-04-25T03:34:28;7.60;;;2.10;;
61025;SDS011;46911;32.650;-16.902;2023-04-25T03:36:34;6.03;;;1.08;;
61025;SDS011;46911;32.650;-16.902;2023-04-25T03:38:38;8.00;;;1.20;;
61025;SDS011;46911;32.650;-16.902;2023-04-25T03:40:41;2.40;;;0.70;;
61025;SDS011;46911;32.650;-16.902;2023-04-25T03:42:58;4.82;;;1.30;;
61025;SDS011;46911;32.650;-16.902;2023-04-25T03:44:59;4.45;;;1.02;;
61025;SDS011;46911;32.650;-16.902;2023-04-25T03:47:03;7.07;;;1.10;;
61025;SDS011;46911;32.650;-16.902;2023-04-25T03:49:09;7.60;;;0.98;;
61025;SDS011;46911;32.650;-16.902;2023-04-25T03:51:28;3.83;;;1.15;;
61025;SDS011;46911;32.650;-16.902;2023-04-25T03:53:29;8.80;;;1.23;;
61025;SDS011;46911;32.650;-16.902;2023-04-25T03:56:02;1.75;;;0.82;;
61025;SDS011;46911;32.650;-16.902;2023-04-25T03:58:07;4.47;;;1.13;;
61025;SDS011;46911;32.650;-16.902;2023-04-25T04:00:14;3.00;;;0.93;;
61025;SDS011;46911;32.650;-16.902;2023-04-25T04:02:15;1.52;;;0.50;;
61025;SDS011;46911;32.650;-16.902;2023-04-25T04:04:26;5.03;;;0.85;;
61025;SDS011;46911;32.650;-16.902;2023-04-25T04:06:27;2.03;;;0.63;;
61025;SDS011;46911;32.650;-16.902;2023-04-25T04:08:49;2.25;;;0.60;;
61025;SDS011;46911;32.650;-16.902;2023-04-25T04:10:50;4.15;;;0.80;;
61025;SDS011;46911;32.650;-16.902;2023-04-25T04:12:51;5.20;;;1.13;;
61025;SDS011;46911;32.650;-16.902;2023-04-25T04:14:52;3.80;;;0.88;;
61025;SDS011;46911;32.650;-16.902;2023-04-25T04:16:55;9.82;;;1.00;;
61025;SDS011;46911;32.650;-16.902;2023-04-25T04:19:01;2.75;;;0.90;;
61025;SDS011;46911;32.650;-16.902;2023-04-25T04:21:03;4.10;;;0.95;;
61025;SDS011;46911;32.650;-16.902;2023-04-25T04:23:09;9.13;;;1.00;;
61025;SDS011;46911;32.650;-16.902;2023-04-25T04:25:10;7.93;;;1.35;;
61025;SDS011;46911;32.650;-16.902;2023-04-25T04:27:34;3.15;;;1.10;;
61025;SDS011;46911;32.650;-16.902;2023-04-25T04:29:56;14.43;;;1.42;;
61025;SDS011;46911;32.650;-16.902;2023-04-25T04:32:06;4.15;;;1.13;;
61025;SDS011;46911;32.650;-16.902;2023-04-25T04:34:10;6.78;;;1.00;;
61025;SDS011;46911;32.650;-16.902;2023-04-25T04:36:11;6.47;;;0.70;;
61025;SDS011;46911;32.650;-16.902;2023-04-25T04:38:13;3.75;;;0.60;;
61025;SDS011;46911;32.650;-16.902;2023-04-25T04:40:16;4.53;;;0.70;;
61025;SDS011;46911;32.650;-16.902;2023-04-25T04:42:28;4.68;;;0.75;;
61025;SDS011;46911;32.650;-16.902;2023-04-25T04:44:51;5.97;;;0.63;;
61025;SDS011;46911;32.650;-16.902;2023-04-25T04:47:01;3.55;;;0.65;;
61025;SDS011;46911;32.650;-16.902;2023-04-25T04:49:15;3.03;;;0.60;;
61025;SDS011;46911;32.650;-16.902;2023-04-25T04:51:27;1.73;;;0.70;;
61025;SDS011;46911;32.650;-16.902;2023-04-25T04:53:27;10.52;;;1.23;;
61025;SDS011;46911;32.650;-16.902;2023-04-25T04:55:50;2.92;;;0.90;;
61025;SDS011;46911;32.650;-16.902;2023-04-25T04:58:16;6.55;;;0.85;;
61025;SDS011;46911;32.650;-16.902;2023-04-25T05:00:26;8.23;;;0.90;;
61025;SDS011;46911;32.650;-16.902;2023-04-25T05:02:45;3.22;;;0.77;;
61025;SDS011;46911;32.650;-16.902;2023-04-25T05:05:12;2.35;;;1.08;;
61025;SDS011;46911;32.650;-16.902;2023-04-25T05:07:33;2.72;;;0.70;;
61025;SDS011;46911;32.650;-16.902;2023-04-25T05:09:40;3.33;;;0.73;;
61025;SDS011;46911;32.650;-16.902;2023-04-25T05:12:01;1.67;;;0.52;;
61025;SDS011;46911;32.650;-16.902;2023-04-25T05:14:28;2.92;;;0.60;;
61025;SDS011;46911;32.650;-16.902;2023-04-25T05:16:44;4.60;;;0.85;;
61025;SDS011;46911;32.650;-16.902;2023-04-25T05:18:57;4.20;;;0.82;;
61025;SDS011;46911;32.650;-16.902;2023-04-25T05:21:17;3.88;;;0.70;;
61025;SDS011;46911;32.650;-16.902;2023-04-25T05:23:41;3.53;;;0.70;;
61025;SDS011;46911;32.650;-16.902;2023-04-25T05:25:57;3.92;;;0.65;;
61025;SDS011;46911;32.650;-16.902;2023-04-25T05:28:20;3.17;;;0.63;;
61025;SDS011;46911;32.650;-16.902;2023-04-25T05:30:53;3.38;;;0.70;;
61025;SDS011;46911;32.650;-16.902;2023-04-25T05:33:18;2.65;;;0.73;;
61025;SDS011;46911;32.650;-16.902;2023-04-25T05:35:22;1.45;;;0.50;;
61025;SDS011;46911;32.650;-16.902;2023-04-25T05:37:27;2.53;;;0.55;;
61025;SDS011;46911;32.650;-16.902;2023-04-25T05:39:48;4.18;;;0.80;;
61025;SDS011;46911;32.650;-16.902;2023-04-25T05:42:06;1.67;;;0.50;;
61025;SDS011;46911;32.650;-16.902;2023-04-25T05:44:22;3.53;;;0.77;;
61025;SDS011;46911;32.650;-16.902;2023-04-25T05:46:48;2.08;;;0.82;;
61025;SDS011;46911;32.650;-16.902;2023-04-25T05:49:05;1.35;;;0.50;;
61025;SDS011;46911;32.650;-16.902;2023-04-25T05:51:28;3.15;;;0.90;;
61025;SDS011;46911;32.650;-16.902;2023-04-25T05:53:55;3.40;;;1.23;;
61025;SDS011;46911;32.650;-16.902;2023-04-25T05:55:58;4.20;;;0.63;;
61025;SDS011;46911;32.650;-16.902;2023-04-25T05:58:01;3.60;;;0.70;;
61025;SDS011;46911;32.650;-16.902;2023-04-25T06:00:06;2.50;;;0.57;;
61025;SDS011;46911;32.650;-16.902;2023-04-25T06:02:16;3.20;;;0.68;;
61025;SDS011;46911;32.650;-16.902;2023-04-25T06:04:22;4.15;;;0.90;;
61025;SDS011;46911;32.650;-16.902;2023-04-25T06:06:25;1.75;;;0.77;;
61025;SDS011;46911;32.650;-16.902;2023-04-25T06:08:28;2.45;;;0.65;;
61025;SDS011;46911;32.650;-16.902;2023-04-25T06:10:31;3.60;;;0.65;;
61025;SDS011;46911;32.650;-16.902;2023-04-25T06:12:33;1.00;;;0.70;;
61025;SDS011;46911;32.650;-16.902;2023-04-25T06:14:34;6.65;;;1.27;;
61025;SDS011;46911;32.650;-16.902;2023-04-25T06:16:35;4.32;;;0.63;;
61025;SDS011;46911;32.650;-16.902;2023-04-25T06:18:36;3.08;;;1.05;;
61025;SDS011;46911;32.650;-16.902;2023-04-25T06:20:37;5.93;;;1.08;;
61025;SDS011;46911;32.650;-16.902;2023-04-25T06:22:38;3.38;;;0.70;;
61025;SDS011;46911;32.650;-16.902;2023-04-25T06:24:39;4.90;;;0.73;;
61025;SDS011;46911;32.650;-16.902;2023-04-25T06:26:40;2.72;;;1.00;;
61025;SDS011;46911;32.650;-16.902;2023-04-25T06:28:50;3.80;;;1.02;;
61025;SDS011;46911;32.650;-16.902;2023-04-25T06:30:54;10.63;;;0.82;;
61025;SDS011;46911;32.650;-16.902;2023-04-25T06:32:57;2.17;;;0.60;;
61025;SDS011;46911;32.650;-16.902;2023-04-25T06:35:02;3.13;;;0.77;;
61025;SDS011;46911;32.650;-16.902;2023-04-25T06:37:04;3.55;;;0.80;;
61025;SDS011;46911;32.650;-16.902;2023-04-25T06:39:05;5.75;;;0.93;;
61025;SDS011;46911;32.650;-16.902;2023-04-25T06:41:07;4.22;;;0.55;;
61025;SDS011;46911;32.650;-16.902;2023-04-25T06:43:11;1.35;;;0.52;;
61025;SDS011;46911;32.650;-16.902;2023-04-25T06:45:30;2.95;;;0.60;;
61025;SDS011;46911;32.650;-16.902;2023-04-25T06:47:33;3.25;;;1.00;;
61025;SDS011;46911;32.650;-16.902;2023-04-25T06:49:36;6.53;;;1.15;;
61025;SDS011;46911;32.650;-16.902;2023-04-25T06:51:37;2.15;;;0.90;;
61025;SDS011;46911;32.650;-16.902;2023-04-25T06:53:38;1.38;;;0.77;;
61025;SDS011;46911;32.650;-16.902;2023-04-25T06:55:43;2.88;;;0.75;;
61025;SDS011;46911;32.650;-16.902;2023-04-25T06:57:52;2.20;;;0.77;;
61025;SDS011;46911;32.650;-16.902;2023-04-25T07:00:36;6.05;;;1.17;;
61025;SDS011;46911;32.650;-16.902;2023-04-25T07:02:40;2.65;;;0.70;;
61025;SDS011;46911;32.650;-16.902;2023-04-25T07:04:46;4.63;;;0.85;;
61025;SDS011;46911;32.650;-16.902;2023-04-25T07:06:47;2.25;;;0.57;;
61025;SDS011;46911;32.650;-16.902;2023-04-25T07:08:53;6.63;;;1.05;;
61025;SDS011;46911;32.650;-16.902;2023-04-25T07:10:57;2.70;;;0.82;;
61025;SDS011;46911;32.650;-16.902;2023-04-25T07:12:58;2.22;;;0.50;;
61025;SDS011;46911;32.650;-16.902;2023-04-25T07:15:02;2.95;;;0.73;;
61025;SDS011;46911;32.650;-16.902;2023-04-25T07:17:09;3.55;;;0.70;;
61025;SDS011;46911;32.650;-16.902;2023-04-25T07:19:10;3.47;;;1.17;;
61025;SDS011;46911;32.650;-16.902;2023-04-25T07:21:13;5.22;;;1.27;;
61025;SDS011;46911;32.650;-16.902;2023-04-25T07:23:16;5.15;;;0.68;;
61025;SDS011;46911;32.650;-16.902;2023-04-25T07:25:20;4.32;;;1.00;;
61025;SDS011;46911;32.650;-16.902;2023-04-25T07:27:21;5.18;;;1.33;;
61025;SDS011;46911;32.650;-16.902;2023-04-25T07:29:37;1.70;;;0.80;;
61025;SDS011;46911;32.650;-16.902;2023-04-25T07:31:42;2.20;;;1.00;;
61025;SDS011;46911;32.650;-16.902;2023-04-25T07:33:43;5.00;;;2.17;;
61025;SDS011;46911;32.650;-16.902;2023-04-25T07:35:47;1.48;;;0.65;;
61025;SDS011;46911;32.650;-16.902;2023-04-25T07:37:48;3.05;;;0.93;;
61025;SDS011;46911;32.650;-16.902;2023-04-25T07:39:52;2.60;;;0.90;;
61025;SDS011;46911;32.650;-16.902;2023-04-25T07:41:58;6.03;;;1.33;;
61025;SDS011;46911;32.650;-16.902;2023-04-25T07:44:04;3.97;;;1.10;;
61025;SDS011;46911;32.650;-16.902;2023-04-25T07:46:06;6.50;;;1.15;;
61025;SDS011;46911;32.650;-16.902;2023-04-25T07:48:09;4.63;;;0.80;;
61025;SDS011;46911;32.650;-16.902;2023-04-25T07:50:12;2.03;;;0.70;;
61025;SDS011;46911;32.650;-16.902;2023-04-25T07:52:16;4.90;;;0.80;;
61025;SDS011;46911;32.650;-16.902;2023-04-25T07:54:26;2.38;;;1.00;;
61025;SDS011;46911;32.650;-16.902;2023-04-25T07:56:33;2.40;;;0.98;;
61025;SDS011;46911;32.650;-16.902;2023-04-25T07:58:39;6.07;;;1.08;;
61025;SDS011;46911;32.650;-16.902;2023-04-25T08:00:43;5.03;;;0.80;;
61025;SDS011;46911;32.650;-16.902;2023-04-25T08:03:04;4.32;;;1.10;;
61025;SDS011;46911;32.650;-16.902;2023-04-25T08:05:09;3.55;;;0.80;;
61025;SDS011;46911;32.650;-16.902;2023-04-25T08:07:14;2.70;;;1.05;;
61025;SDS011;46911;32.650;-16.902;2023-04-25T08:09:28;5.47;;;0.63;;
61025;SDS011;46911;32.650;-16.902;2023-04-25T08:11:34;1.70;;;0.65;;
61025;SDS011;46911;32.650;-16.902;2023-04-25T08:13:38;1.88;;;0.70;;
61025;SDS011;46911;32.650;-16.902;2023-04-25T08:15:42;5.78;;;1.00;;
61025;SDS011;46911;32.650;-16.902;2023-04-25T08:17:45;4.78;;;0.90;;
61025;SDS011;46911;32.650;-16.902;2023-04-25T08:19:47;5.57;;;0.90;;
61025;SDS011;46911;32.650;-16.902;2023-04-25T08:24:04;6.82;;;1.40;;
61025;SDS011;46911;32.650;-16.902;2023-04-25T08:26:10;9.40;;;1.52;;
61025;SDS011;46911;32.650;-16.902;2023-04-25T08:28:15;7.38;;;2.33;;
61025;SDS011;46911;32.650;-16.902;2023-04-25T08:30:20;7.82;;;1.40;;
61025;SDS011;46911;32.650;-16.902;2023-04-25T08:32:21;6.57;;;1.42;;
61025;SDS011;46911;32.650;-16.902;2023-04-25T08:34:49;5.43;;;1.33;;
61025;SDS011;46911;32.650;-16.902;2023-04-25T08:36:55;4.07;;;1.10;;
61025;SDS011;46911;32.650;-16.902;2023-04-25T08:39:22;4.30;;;1.80;;
61025;SDS011;46911;32.650;-16.902;2023-04-25T08:41:51;6.28;;;1.58;;
61025;SDS011;46911;32.650;-16.902;2023-04-25T08:43:53;13.63;;;2.13;;
61025;SDS011;46911;32.650;-16.902;2023-04-25T08:46:00;10.90;;;1.60;;
61025;SDS011;46911;32.650;-16.902;2023-04-25T08:48:10;7.07;;;1.85;;
61025;SDS011;46911;32.650;-16.902;2023-04-25T08:50:17;7.95;;;1.67;;
61025;SDS011;46911;32.650;-16.902;2023-04-25T08:52:26;8.05;;;1.52;;
61025;SDS011;46911;32.650;-16.902;2023-04-25T08:54:31;9.27;;;1.50;;
61025;SDS011;46911;32.650;-16.902;2023-04-25T08:56:34;8.80;;;2.08;;
61025;SDS011;46911;32.650;-16.902;2023-04-25T08:58:36;8.48;;;1.95;;
61025;SDS011;46911;32.650;-16.902;2023-04-25T09:00:38;11.25;;;2.55;;
61025;SDS011;46911;32.650;-16.902;2023-04-25T09:02:40;9.93;;;2.10;;
61025;SDS011;46911;32.650;-16.902;2023-04-25T09:04:44;5.47;;;1.30;;
61025;SDS011;46911;32.650;-16.902;2023-04-25T09:06:45;11.18;;;2.25;;
61025;SDS011;46911;32.650;-16.902;2023-04-25T09:08:49;15.43;;;1.90;;
61025;SDS011;46911;32.650;-16.902;2023-04-25T09:10:53;12.43;;;1.42;;
61025;SDS011;46911;32.650;-16.902;2023-04-25T09:13:04;9.32;;;1.80;;
61025;SDS011;46911;32.650;-16.902;2023-04-25T09:15:29;9.73;;;1.85;;
61025;SDS011;46911;32.650;-16.902;2023-04-25T09:17:55;7.88;;;1.83;;
61025;SDS011;46911;32.650;-16.902;2023-04-25T09:20:05;7.43;;;1.65;;
61025;SDS011;46911;32.650;-16.902;2023-04-25T09:22:08;7.45;;;1.40;;
61025;SDS011;46911;32.650;-16.902;2023-04-25T09:24:12;7.40;;;1.52;;
61025;SDS011;46911;32.650;-16.902;2023-04-25T09:26:16;14.27;;;1.98;;
61025;SDS011;46911;32.650;-16.902;2023-04-25T09:28:25;8.20;;;1.65;;
61025;SDS011;46911;32.650;-16.902;2023-04-25T09:30:31;12.13;;;1.77;;
61025;SDS011;46911;32.650;-16.902;2023-04-25T09:32:50;8.82;;;1.75;;
61025;SDS011;46911;32.650;-16.902;2023-04-25T09:34:55;7.05;;;1.58;;
61025;SDS011;46911;32.650;-16.902;2023-04-25T09:36:59;8.05;;;2.03;;
61025;SDS011;46911;32.650;-16.902;2023-04-25T09:39:22;13.70;;;2.03;;
61025;SDS011;46911;32.650;-16.902;2023-04-25T09:41:37;9.30;;;1.92;;
61025;SDS011;46911;32.650;-16.902;2023-04-25T09:43:39;11.77;;;1.83;;
61025;SDS011;46911;32.650;-16.902;2023-04-25T09:45:49;9.23;;;1.48;;
61025;SDS011;46911;32.650;-16.902;2023-04-25T09:47:55;6.07;;;1.65;;
61025;SDS011;46911;32.650;-16.902;2023-04-25T09:50:15;11.30;;;1.75;;
61025;SDS011;46911;32.650;-16.902;2023-04-25T09:52:21;8.90;;;1.55;;
61025;SDS011;46911;32.650;-16.902;2023-04-25T09:54:34;7.97;;;1.40;;
61025;SDS011;46911;32.650;-16.902;2023-04-25T09:56:50;7.55;;;1.40;;
61025;SDS011;46911;32.650;-16.902;2023-04-25T09:58:57;8.48;;;1.60;;
61025;SDS011;46911;32.650;-16.902;2023-04-25T10:01:04;10.52;;;1.30;;
61025;SDS011;46911;32.650;-16.902;2023-04-25T10:03:20;12.80;;;1.95;;
61025;SDS011;46911;32.650;-16.902;2023-04-25T10:05:39;5.93;;;1.45;;
61025;SDS011;46911;32.650;-16.902;2023-04-25T10:07:44;11.02;;;1.90;;
61025;SDS011;46911;32.650;-16.902;2023-04-25T10:09:50;12.40;;;2.30;;
61025;SDS011;46911;32.650;-16.902;2023-04-25T10:12:07;11.63;;;2.67;;
61025;SDS011;46911;32.650;-16.902;2023-04-25T10:14:08;10.77;;;1.50;;
61025;SDS011;46911;32.650;-16.902;2023-04-25T10:16:12;8.68;;;2.20;;
61025;SDS011;46911;32.650;-16.902;2023-04-25T10:18:16;5.28;;;2.22;;
61025;SDS011;46911;32.650;-16.902;2023-04-25T10:20:20;10.18;;;1.98;;
61025;SDS011;46911;32.650;-16.902;2023-04-25T10:22:34;8.27;;;1.60;;
61025;SDS011;46911;32.650;-16.902;2023-04-25T10:24:38;9.13;;;3.15;;
61025;SDS011;46911;32.650;-16.902;2023-04-25T10:26:42;5.78;;;1.45;;
61025;SDS011;46911;32.650;-16.902;2023-04-25T10:28:56;8.70;;;1.70;;
61025;SDS011;46911;32.650;-16.902;2023-04-25T10:31:02;7.63;;;1.30;;
61025;SDS011;46911;32.650;-16.902;2023-04-25T10:33:17;13.52;;;1.33;;
61025;SDS011;46911;32.650;-16.902;2023-04-25T10:35:19;8.15;;;1.70;;
61025;SDS011;46911;32.650;-16.902;2023-04-25T10:37:28;9.18;;;1.40;;
61025;SDS011;46911;32.650;-16.902;2023-04-25T10:39:35;5.43;;;1.48;;
61025;SDS011;46911;32.650;-16.902;2023-04-25T10:41:45;16.13;;;1.73;;
61025;SDS011;46911;32.650;-16.902;2023-04-25T10:44:02;6.60;;;1.35;;
61025;SDS011;46911;32.650;-16.902;2023-04-25T10:48:47;6.22;;;1.67;;
61025;SDS011;46911;32.650;-16.902;2023-04-25T10:51:10;12.63;;;2.83;;
61025;SDS011;46911;32.650;-16.902;2023-04-25T10:53:15;4.70;;;1.02;;
61025;SDS011;46911;32.650;-16.902;2023-04-25T10:55:21;7.17;;;1.53;;
61025;SDS011;46911;32.650;-16.902;2023-04-25T10:59:42;4.75;;;1.30;;
61025;SDS011;46911;32.650;-16.902;2023-04-25T11:01:45;11.88;;;1.40;;
61025;SDS011;46911;32.650;-16.902;2023-04-25T11:03:49;9.23;;;1.50;;
61025;SDS011;46911;32.650;-16.902;2023-04-25T11:05:59;8.23;;;2.08;;
61025;SDS011;46911;32.650;-16.902;2023-04-25T11:08:02;9.68;;;1.45;;
61025;SDS011;46911;32.650;-16.902;2023-04-25T11:10:15;7.35;;;1.80;;
61025;SDS011;46911;32.650;-16.902;2023-04-25T11:12:16;13.70;;;2.25;;
61025;SDS011;46911;32.650;-16.902;2023-04-25T11:14:20;9.20;;;1.45;;
61025;SDS011;46911;32.650;-16.902;2023-04-25T11:16:25;9.18;;;2.83;;
61025;SDS011;46911;32.650;-16.902;2023-04-25T11:18:29;10.45;;;1.60;;
61025;SDS011;46911;32.650;-16.902;2023-04-25T11:20:34;10.88;;;2.38;;
61025;SDS011;46911;32.650;-16.902;2023-04-25T11:22:35;7.82;;;2.47;;
61025;SDS011;46911;32.650;-16.902;2023-04-25T11:24:36;5.10;;;1.33;;
61025;SDS011;46911;32.650;-16.902;2023-04-25T11:26:39;5.60;;;1.77;;
61025;SDS011;46911;32.650;-16.902;2023-04-25T11:28:44;14.90;;;3.47;;
61025;SDS011;46911;32.650;-16.902;2023-04-25T11:30:50;8.25;;;1.42;;
61025;SDS011;46911;32.650;-16.902;2023-04-25T11:32:51;7.25;;;1.60;;
61025;SDS011;46911;32.650;-16.902;2023-04-25T11:34:52;5.45;;;1.73;;
61025;SDS011;46911;32.650;-16.902;2023-04-25T11:36:57;4.80;;;1.40;;
61025;SDS011;46911;32.650;-16.902;2023-04-25T11:39:03;6.90;;;1.63;;
61025;SDS011;46911;32.650;-16.902;2023-04-25T11:41:09;9.05;;;1.73;;
61025;SDS011;46911;32.650;-16.902;2023-04-25T11:43:12;6.72;;;1.90;;
61025;SDS011;46911;32.650;-16.902;2023-04-25T11:45:14;8.18;;;1.58;;
61025;SDS011;46911;32.650;-16.902;2023-04-25T11:47:15;6.68;;;1.45;;
61025;SDS011;46911;32.650;-16.902;2023-04-25T11:49:19;4.70;;;1.23;;
61025;SDS011;46911;32.650;-16.902;2023-04-25T11:51:23;11.82;;;2.25;;
61025;SDS011;46911;32.650;-16.902;2023-04-25T11:53:27;7.20;;;1.83;;
61025;SDS011;46911;32.650;-16.902;2023-04-25T11:55:33;10.88;;;2.25;;
61025;SDS011;46911;32.650;-16.902;2023-04-25T11:57:34;8.75;;;2.15;;
61025;SDS011;46911;32.650;-16.902;2023-04-25T11:59:37;9.73;;;2.00;;
61025;SDS011;46911;32.650;-16.902;2023-04-25T12:01:40;7.90;;;2.47;;
61025;SDS011;46911;32.650;-16.902;2023-04-25T12:03:50;8.40;;;2.03;;
61025;SDS011;46911;32.650;-16.902;2023-04-25T12:05:51;6.13;;;1.75;;
61025;SDS011;46911;32.650;-16.902;2023-04-25T12:07:54;7.50;;;2.40;;
61025;SDS011;46911;32.650;-16.902;2023-04-25T12:09:58;8.00;;;1.33;;
61025;SDS011;46911;32.650;-16.902;2023-04-25T12:11:59;10.10;;;1.63;;
61025;SDS011;46911;32.650;-16.902;2023-04-25T12:14:06;11.13;;;1.88;;
61025;SDS011;46911;32.650;-16.902;2023-04-25T12:16:07;10.20;;;1.92;;
61025;SDS011;46911;32.650;-16.902;2023-04-25T12:18:08;7.55;;;1.48;;
61025;SDS011;46911;32.650;-16.902;2023-04-25T12:20:19;5.88;;;2.10;;
61025;SDS011;46911;32.650;-16.902;2023-04-25T12:22:24;10.32;;;2.35;;
61025;SDS011;46911;32.650;-16.902;2023-04-25T12:24:28;10.73;;;2.28;;
61025;SDS011;46911;32.650;-16.902;2023-04-25T12:26:45;8.63;;;1.75;;
61025;SDS011;46911;32.650;-16.902;2023-04-25T12:28:49;9.00;;;1.88;;
61025;SDS011;46911;32.650;-16.902;2023-04-25T12:33:04;9.88;;;2.80;;